Time;durP1;ratioP1;P1;durP2;ratioP2;P2;SDS_P1;SDS_P2;PMS_P1;PMS_P2;Temp;Humidity;BMP_temperature;BMP_pressure;BME280_temperature;BME280_humidity;BME280_pressure;Samples;Min_cycle;Max_cycle;Signal;HPM_P1;HPM_P2
2021/11/30 00:01:03;;;;;;;19.95;11.13;;;5.70;95.90;;;;;;5051111;28;20057;-70
2021/11/30 00:03:29;;;;;;;21.67;11.80;;;5.70;96.00;;;;;;5049817;28;20064;-69
2021/11/30 00:05:55;;;;;;;21.75;11.88;;;5.70;96.00;;;;;;5050082;28;20055;-70
2021/11/30 00:08:21;;;;;;;19.83;11.57;;;5.70;96.10;;;;;;5051331;28;20029;-70
2021/11/30 00:10:47;;;;;;;22.25;12.63;;;5.70;96.20;;;;;;5050844;28;20021;-69
2021/11/30 00:13:22;;;;;;;19.75;11.07;;;5.80;96.20;;;;;;5050768;28;20063;-69
2021/11/30 00:15:49;;;;;;;26.48;13.27;;;5.80;96.10;;;;;;5050720;28;20029;-69
2021/11/30 00:18:16;;;;;;;24.48;13.20;;;5.90;96.10;;;;;;5050604;28;20047;-70
2021/11/30 00:20:43;;;;;;;22.30;12.43;;;5.90;96.10;;;;;;5049328;28;20035;-70
2021/11/30 00:23:09;;;;;;;23.35;13.40;;;5.90;96.30;;;;;;5049773;28;20037;-70
2021/11/30 00:25:35;;;;;;;23.23;12.77;;;6.00;96.50;;;;;;5049400;28;20112;-71
2021/11/30 00:28:02;;;;;;;26.38;13.95;;;6.00;96.40;;;;;;5050442;28;20037;-69
2021/11/30 00:30:28;;;;;;;25.88;13.85;;;6.00;96.40;;;;;;5050407;28;20036;-70
2021/11/30 00:32:54;;;;;;;28.95;15.07;;;6.00;96.30;;;;;;5050346;28;20560;-70
2021/11/30 00:35:23;;;;;;;22.98;13.82;;;6.00;96.60;;;;;;5050827;28;20071;-70
2021/11/30 00:37:50;;;;;;;25.45;13.95;;;6.10;96.50;;;;;;5049490;28;20037;-69
2021/11/30 00:40:16;;;;;;;22.60;13.63;;;6.00;96.40;;;;;;5049237;28;20113;-68
2021/11/30 00:42:41;;;;;;;26.90;15.55;;;6.10;96.60;;;;;;5050212;28;20025;-68
2021/11/30 00:45:09;;;;;;;25.02;14.30;;;6.10;96.50;;;;;;5050171;28;20036;-69
2021/11/30 00:47:44;;;;;;;27.98;15.20;;;6.10;96.50;;;;;;5050744;28;20027;-69
2021/11/30 00:50:10;;;;;;;27.27;15.65;;;6.10;96.50;;;;;;5050319;28;20029;-69
2021/11/30 00:52:36;;;;;;;25.58;14.70;;;6.20;96.60;;;;;;5050198;28;20413;-69
2021/11/30 00:55:03;;;;;;;26.50;15.20;;;6.10;96.70;;;;;;5050083;28;20112;-69
2021/11/30 00:57:28;;;;;;;27.80;15.40;;;6.10;96.90;;;;;;5049928;28;20041;-68
2021/11/30 00:59:54;;;;;;;30.02;16.05;;;6.00;97.00;;;;;;5050176;28;20025;-70
2021/11/30 01:02:20;;;;;;;33.13;16.13;;;6.10;97.10;;;;;;5050553;28;20116;-69
2021/11/30 01:04:46;;;;;;;27.73;15.55;;;6.00;97.10;;;;;;5050002;28;20031;-70
2021/11/30 01:07:12;;;;;;;33.78;17.15;;;6.10;97.20;;;;;;5050171;28;20036;-70
2021/11/30 01:09:40;;;;;;;27.92;16.42;;;6.10;97.20;;;;;;5050316;28;20021;-70
2021/11/30 01:12:06;;;;;;;28.10;16.85;;;6.10;97.30;;;;;;5050103;28;20103;-70
2021/11/30 01:14:32;;;;;;;29.05;16.30;;;6.10;97.50;;;;;;5050577;28;20017;-70
2021/11/30 01:16:59;;;;;;;30.83;15.93;;;6.10;97.70;;;;;;5050059;28;20052;-70
2021/11/30 01:19:25;;;;;;;29.23;16.25;;;6.10;97.40;;;;;;5050036;28;20040;-69
2021/11/30 01:21:51;;;;;;;26.13;14.77;;;6.20;97.40;;;;;;5050178;28;20029;-69
2021/11/30 01:24:17;;;;;;;28.83;15.70;;;6.20;97.40;;;;;;5049823;28;20036;-71
2021/11/30 01:26:43;;;;;;;27.83;15.20;;;6.20;97.30;;;;;;5050406;28;20059;-71
2021/11/30 01:29:10;;;;;;;26.50;14.23;;;6.30;97.30;;;;;;5049842;28;20057;-70
2021/11/30 01:31:35;;;;;;;27.88;14.65;;;6.20;97.30;;;;;;5050110;28;20049;-70
2021/11/30 01:34:01;;;;;;;25.95;13.85;;;6.20;97.40;;;;;;5053725;28;20036;-70
2021/11/30 01:36:28;;;;;;;30.20;13.23;;;6.20;97.40;;;;;;5053678;28;20363;-70
2021/11/30 01:38:54;;;;;;;26.10;13.43;;;6.20;97.50;;;;;;5053726;28;20025;-71
2021/11/30 01:41:20;;;;;;;25.35;13.35;;;6.20;97.60;;;;;;5054284;28;20531;-70
2021/11/30 01:43:48;;;;;;;21.95;12.43;;;6.10;97.60;;;;;;5053515;28;20095;-70
2021/11/30 01:46:40;;;;;;;25.50;12.75;;;6.20;97.70;;;;;;5053516;28;20255;-69
2021/11/30 01:51:32;;;;;;;26.25;13.02;;;6.30;97.50;;;;;;5053485;28;20367;-70
2021/11/30 01:53:59;;;;;;;20.00;12.30;;;6.40;97.40;;;;;;5053349;28;20024;-69
2021/11/30 01:56:25;;;;;;;23.88;12.40;;;6.30;97.40;;;;;;5053832;28;20032;-70
2021/11/30 01:58:52;;;;;;;21.52;12.48;;;6.40;97.50;;;;;;5053070;28;20422;-69
2021/11/30 02:01:18;;;;;;;21.52;12.02;;;6.40;97.30;;;;;;5053187;28;20435;-69
2021/11/30 02:03:45;;;;;;;18.52;10.77;;;6.40;97.20;;;;;;5052301;28;20520;-69
2021/11/30 02:06:11;;;;;;;18.70;10.20;;;6.50;97.30;;;;;;5053030;28;20029;-69
2021/11/30 02:08:36;;;;;;;20.75;10.93;;;6.50;97.20;;;;;;5052364;28;20083;-69
2021/11/30 02:11:03;;;;;;;18.80;10.73;;;6.40;97.20;;;;;;5052931;28;20607;-69
2021/11/30 02:13:31;;;;;;;20.67;11.20;;;6.50;97.20;;;;;;5052623;28;20037;-69
2021/11/30 02:15:59;;;;;;;16.38;9.23;;;6.50;96.90;;;;;;5053085;28;20037;-69
2021/11/30 02:18:24;;;;;;;;;;;6.50;97.10;;;;;;5053330;28;20041;-70
2021/11/30 02:20:55;;;;;;;19.02;8.48;;;6.50;97.20;;;;;;5053403;28;20309;-70
2021/11/30 02:26:13;;;;;;;13.02;7.18;;;6.50;97.60;;;;;;5052824;28;20048;-70
2021/11/30 02:28:41;;;;;;;15.38;6.93;;;6.40;97.60;;;;;;5052922;28;20080;-69
2021/11/30 02:31:08;;;;;;;8.90;6.30;;;6.50;97.70;;;;;;5052637;28;20136;-70
2021/11/30 02:33:34;;;;;;;9.88;6.15;;;6.30;97.70;;;;;;5052434;28;20048;-69
2021/11/30 02:36:00;;;;;;;8.40;5.40;;;6.40;97.80;;;;;;5062223;28;20032;-69
2021/11/30 02:38:26;;;;;;;11.75;6.68;;;6.40;97.80;;;;;;5071964;28;20025;-70
2021/11/30 02:40:52;;;;;;;7.43;4.90;;;6.40;97.70;;;;;;5072505;28;20119;-69
2021/11/30 02:43:18;;;;;;;8.73;4.70;;;6.40;97.70;;;;;;5070868;28;20350;-69
2021/11/30 02:45:44;;;;;;;8.32;4.78;;;6.40;97.70;;;;;;5072378;28;20534;-69
2021/11/30 02:48:10;;;;;;;10.68;4.57;;;6.30;97.80;;;;;;5071406;28;20119;-68
2021/11/30 02:50:40;;;;;;;8.88;4.88;;;6.20;98.00;;;;;;5072818;28;20048;-69
2021/11/30 02:53:09;;;;;;;9.40;4.55;;;6.20;98.00;;;;;;5072413;28;20535;-69
2021/11/30 02:55:35;;;;;;;8.75;4.38;;;6.20;97.80;;;;;;5071050;28;20029;-68
2021/11/30 02:58:01;;;;;;;7.60;4.07;;;6.20;97.90;;;;;;5072009;28;20093;-70
2021/11/30 03:00:27;;;;;;;9.82;4.50;;;6.20;98.00;;;;;;5072288;28;20045;-69
2021/11/30 03:02:52;;;;;;;8.55;4.43;;;6.20;97.90;;;;;;5072579;28;20025;-69
2021/11/30 03:05:18;;;;;;;7.10;3.90;;;6.20;97.80;;;;;;5072226;28;20474;-69
2021/11/30 03:07:44;;;;;;;4.70;3.25;;;6.10;97.60;;;;;;5071988;28;20048;-69
2021/11/30 03:10:17;;;;;;;7.68;3.47;;;6.10;97.60;;;;;;5072025;28;20480;-70
2021/11/30 03:12:43;;;;;;;5.47;3.63;;;6.00;97.60;;;;;;5072023;28;20028;-70
2021/11/30 03:15:15;;;;;;;6.97;3.70;;;6.00;97.80;;;;;;5071901;28;20120;-69
2021/11/30 03:17:42;;;;;;;5.03;3.33;;;6.00;98.00;;;;;;5072236;28;20020;-70
2021/11/30 03:20:08;;;;;;;6.00;3.22;;;6.00;97.70;;;;;;5072081;28;20059;-69
2021/11/30 03:22:34;;;;;;;4.05;2.78;;;5.90;97.70;;;;;;5070546;28;20033;-70
2021/11/30 03:25:00;;;;;;;4.88;2.85;;;5.80;97.80;;;;;;5071775;28;20025;-70
2021/11/30 03:27:26;;;;;;;10.73;3.25;;;5.90;98.00;;;;;;5071489;28;20464;-69
2021/11/30 03:29:53;;;;;;;4.28;3.03;;;5.90;97.70;;;;;;5072065;28;20027;-70
2021/11/30 03:34:57;;;;;;;4.95;2.78;;;5.90;97.60;;;;;;5071455;28;20048;-69
2021/11/30 03:37:25;;;;;;;5.95;2.42;;;5.80;97.40;;;;;;5071272;28;20427;-69
2021/11/30 03:39:52;;;;;;;4.53;2.58;;;5.70;97.30;;;;;;5070454;28;20033;-70
2021/11/30 03:42:18;;;;;;;5.03;2.25;;;5.70;97.30;;;;;;5071320;28;20028;-69
2021/11/30 03:44:44;;;;;;;7.00;2.28;;;5.70;97.30;;;;;;5071603;28;20024;-70
2021/11/30 03:47:10;;;;;;;3.55;2.10;;;5.70;97.50;;;;;;5071207;28;20040;-71
2021/11/30 03:49:36;;;;;;;4.93;2.28;;;5.70;97.30;;;;;;5071130;28;20029;-70
2021/11/30 03:52:02;;;;;;;6.03;2.60;;;5.60;97.30;;;;;;5071042;28;20032;-68
2021/11/30 03:54:29;;;;;;;3.28;2.25;;;5.60;97.80;;;;;;5070996;28;20033;-70
2021/11/30 03:56:55;;;;;;;4.97;2.58;;;5.80;97.60;;;;;;5069969;28;20376;-69
2021/11/30 03:59:21;;;;;;;3.42;2.33;;;5.60;97.50;;;;;;5071515;28;20012;-70
2021/11/30 04:01:47;;;;;;;4.45;2.25;;;5.60;97.60;;;;;;5071118;28;20433;-71
2021/11/30 04:04:21;;;;;;;5.63;2.30;;;5.50;97.60;;;;;;5070956;28;20036;-70
2021/11/30 04:06:53;;;;;;;4.75;3.05;;;5.50;97.80;;;;;;5070818;28;20097;-70
2021/11/30 04:09:20;;;;;;;3.65;2.55;;;5.50;98.00;;;;;;5070903;28;20028;-70
2021/11/30 04:11:47;;;;;;;4.22;2.53;;;5.50;98.00;;;;;;5070405;28;20039;-70
2021/11/30 04:14:13;;;;;;;7.03;2.60;;;5.60;98.10;;;;;;5070975;28;20053;-70
2021/11/30 04:16:39;;;;;;;3.65;2.55;;;5.50;98.10;;;;;;5070826;28;20506;-70
2021/11/30 04:19:05;;;;;;;4.63;2.88;;;5.40;98.10;;;;;;5070636;28;20118;-70
2021/11/30 04:21:31;;;;;;;11.90;2.80;;;5.30;98.10;;;;;;5070850;28;20025;-70
2021/11/30 04:23:56;;;;;;;7.43;3.20;;;5.40;98.00;;;;;;5070503;28;20039;-69
2021/11/30 04:26:23;;;;;;;5.22;2.92;;;5.30;98.10;;;;;;5071161;28;20354;-69
2021/11/30 04:28:49;;;;;;;6.32;3.33;;;5.30;98.10;;;;;;5070434;28;20032;-69
2021/11/30 04:31:15;;;;;;;5.57;3.63;;;5.30;98.20;;;;;;5070374;28;20040;-70
2021/11/30 04:33:40;;;;;;;4.22;3.47;;;5.30;98.20;;;;;;5069294;28;20028;-70
2021/11/30 04:36:07;;;;;;;10.05;3.78;;;5.30;98.10;;;;;;5070400;28;20027;-70
2021/11/30 04:38:34;;;;;;;7.57;3.92;;;5.30;98.20;;;;;;5070579;28;20347;-69
2021/11/30 04:41:00;;;;;;;5.50;3.53;;;5.20;98.20;;;;;;5070408;28;20035;-69
2021/11/30 04:43:33;;;;;;;6.22;3.80;;;5.30;98.20;;;;;;5069129;28;20032;-68
2021/11/30 04:46:01;;;;;;;6.90;3.95;;;5.40;98.20;;;;;;5069269;28;20037;-69
2021/11/30 04:48:27;;;;;;;6.75;3.90;;;5.30;98.00;;;;;;5069309;28;20025;-69
2021/11/30 04:50:55;;;;;;;8.07;3.40;;;5.20;97.90;;;;;;5070785;28;20036;-70
2021/11/30 04:53:21;;;;;;;6.05;3.67;;;5.30;97.90;;;;;;5070426;28;20126;-70
2021/11/30 04:55:50;;;;;;;6.50;3.33;;;5.30;97.80;;;;;;5070229;28;20082;-69
2021/11/30 04:58:17;;;;;;;3.28;2.60;;;5.30;97.80;;;;;;5069025;28;20040;-69
2021/11/30 05:00:43;;;;;;;6.75;3.22;;;5.30;97.80;;;;;;5070322;28;20113;-70
2021/11/30 05:03:09;;;;;;;4.70;2.72;;;5.30;97.60;;;;;;5070080;28;20089;-69
2021/11/30 05:05:35;;;;;;;3.88;2.95;;;5.40;97.60;;;;;;5070587;28;20096;-69
2021/11/30 05:08:01;;;;;;;4.68;2.95;;;5.40;97.50;;;;;;5072623;28;20470;-69
2021/11/30 05:10:27;;;;;;;4.03;2.75;;;5.40;97.40;;;;;;5074108;28;20029;-70
2021/11/30 05:12:53;;;;;;;4.70;2.50;;;5.40;97.40;;;;;;5074236;28;20029;-70
2021/11/30 05:15:19;;;;;;;4.43;2.88;;;5.40;97.10;;;;;;5073875;28;20048;-70
2021/11/30 05:17:44;;;;;;;4.50;3.00;;;5.40;97.30;;;;;;5074353;28;20421;-70
2021/11/30 05:20:11;;;;;;;3.33;2.38;;;5.40;97.30;;;;;;5074146;28;20031;-69
2021/11/30 05:22:37;;;;;;;4.28;2.65;;;5.40;97.30;;;;;;5073872;28;20115;-70
2021/11/30 05:25:04;;;;;;;4.60;2.55;;;5.50;97.20;;;;;;5072998;28;20119;-69
2021/11/30 05:27:38;;;;;;;4.43;2.40;;;5.40;97.00;;;;;;5073996;28;20029;-70
2021/11/30 05:30:09;;;;;;;2.75;2.15;;;5.50;97.10;;;;;;5073713;28;20062;-70
2021/11/30 05:32:34;;;;;;;3.72;2.55;;;5.50;97.00;;;;;;5073959;28;20106;-70
2021/11/30 05:35:00;;;;;;;2.88;2.00;;;5.40;97.10;;;;;;5073675;28;20028;-70
2021/11/30 05:37:26;;;;;;;2.28;1.77;;;5.40;97.10;;;;;;5073581;28;20074;-69
2021/11/30 05:39:51;;;;;;;2.97;1.98;;;5.40;97.10;;;;;;5073543;28;20481;-69
2021/11/30 05:42:17;;;;;;;3.15;1.88;;;5.40;97.10;;;;;;5072702;28;20497;-69
2021/11/30 05:44:43;;;;;;;4.22;2.13;;;5.50;97.20;;;;;;5073911;28;20172;-69
2021/11/30 05:47:09;;;;;;;3.75;2.00;;;5.50;97.20;;;;;;5073616;28;20048;-68
2021/11/30 05:49:34;;;;;;;3.28;2.05;;;5.50;97.20;;;;;;5073658;28;20132;-68
2021/11/30 05:52:00;;;;;;;2.67;1.75;;;5.50;97.30;;;;;;5072587;28;20033;-69
2021/11/30 05:54:27;;;;;;;5.32;2.30;;;5.60;97.40;;;;;;5073458;28;20413;-69
2021/11/30 05:56:52;;;;;;;3.00;1.67;;;5.50;97.40;;;;;;5072746;28;20118;-70
2021/11/30 05:59:20;;;;;;;3.60;1.73;;;5.50;97.30;;;;;;5073140;28;20416;-70
2021/11/30 06:01:46;;;;;;;3.42;1.58;;;5.60;97.20;;;;;;5072089;28;20449;-71
2021/11/30 06:04:12;;;;;;;2.55;1.70;;;5.60;97.40;;;;;;5073313;28;20024;-70
2021/11/30 06:06:38;;;;;;;2.13;1.48;;;5.60;97.50;;;;;;5073523;28;20403;-71
2021/11/30 06:09:07;;;;;;;2.63;1.60;;;5.70;97.50;;;;;;5073486;28;20478;-71
2021/11/30 06:11:33;;;;;;;2.38;1.55;;;5.70;97.40;;;;;;5073798;28;20178;-70
2021/11/30 06:13:59;;;;;;;4.68;1.63;;;5.70;97.60;;;;;;5073146;28;20133;-71
2021/11/30 06:16:26;;;;;;;4.18;1.63;;;5.70;97.60;;;;;;5071684;28;20147;-68
2021/11/30 06:18:52;;;;;;;1.67;1.50;;;5.70;97.70;;;;;;5071375;28;20162;-70
2021/11/30 06:21:18;;;;;;;2.10;1.60;;;5.70;97.80;;;;;;5072881;28;20032;-70
2021/11/30 06:23:45;;;;;;;3.05;1.83;;;5.70;97.90;;;;;;5073332;28;20024;-68
2021/11/30 06:26:12;;;;;;;3.00;2.10;;;5.70;98.00;;;;;;5072802;28;20028;-69
2021/11/30 06:28:38;;;;;;;3.20;2.00;;;5.80;98.00;;;;;;5072091;28;20277;-69
2021/11/30 06:31:05;;;;;;;5.13;1.55;;;5.80;98.00;;;;;;5072845;28;20425;-69
2021/11/30 06:33:31;;;;;;;2.47;1.92;;;5.80;98.10;;;;;;5073074;28;20442;-69
2021/11/30 06:35:57;;;;;;;3.15;2.00;;;5.80;98.20;;;;;;5072818;28;20424;-68
2021/11/30 06:38:23;;;;;;;2.35;1.42;;;5.90;98.30;;;;;;5073218;28;20032;-69
2021/11/30 06:40:50;;;;;;;2.00;1.52;;;5.90;98.20;;;;;;5072728;28;20074;-69
2021/11/30 06:43:15;;;;;;;3.75;2.47;;;5.90;98.30;;;;;;5072705;28;20031;-69
2021/11/30 06:45:43;;;;;;;2.42;1.90;;;6.00;98.40;;;;;;5071639;28;20032;-69
2021/11/30 06:48:09;;;;;;;3.42;2.10;;;5.90;98.60;;;;;;5072533;28;20025;-70
2021/11/30 06:50:36;;;;;;;2.40;2.03;;;5.90;98.90;;;;;;5072952;28;20024;-70
2021/11/30 06:53:01;;;;;;;3.03;1.77;;;5.90;99.00;;;;;;5072498;28;20035;-68
2021/11/30 06:55:27;;;;;;;3.65;1.95;;;6.10;99.10;;;;;;5072356;28;20108;-69
2021/11/30 06:57:53;;;;;;;3.47;2.20;;;6.10;99.10;;;;;;5072404;28;20548;-70
2021/11/30 07:00:21;;;;;;;4.72;2.13;;;6.10;99.10;;;;;;5061853;28;20040;-69
2021/11/30 07:02:49;;;;;;;2.28;1.90;;;6.10;99.20;;;;;;5052881;28;20383;-70
2021/11/30 07:05:20;;;;;;;2.05;1.77;;;6.10;99.30;;;;;;5052246;28;20462;-70
2021/11/30 07:15:06;;;;;;;7.47;2.45;;;6.30;99.80;;;;;;5052213;28;20021;-69
2021/11/30 07:17:32;;;;;;;2.90;1.83;;;6.20;99.60;;;;;;5051580;28;20029;-69
2021/11/30 07:19:59;;;;;;;3.88;2.15;;;6.20;99.60;;;;;;5051064;28;20025;-70
2021/11/30 07:22:25;;;;;;;4.15;2.33;;;6.30;99.60;;;;;;5052007;28;20518;-70
2021/11/30 07:24:50;;;;;;;4.05;2.63;;;6.30;99.40;;;;;;5051780;28;20131;-70
2021/11/30 07:27:16;;;;;;;2.20;1.98;;;6.30;99.50;;;;;;5051835;28;20029;-70
2021/11/30 07:29:42;;;;;;;2.08;1.80;;;6.30;99.70;;;;;;5051920;28;20613;-70
2021/11/30 07:32:09;;;;;;;4.30;1.95;;;6.30;99.90;;;;;;5051823;28;20056;-70
2021/11/30 07:34:35;;;;;;;2.15;1.95;;;6.30;99.90;;;;;;5051971;28;20430;-69
2021/11/30 07:37:01;;;;;;;2.42;1.92;;;6.30;99.90;;;;;;5051746;28;20101;-68
2021/11/30 07:39:27;;;;;;;4.72;2.05;;;6.30;99.90;;;;;;5051620;28;20116;-71
2021/11/30 07:41:52;;;;;;;7.47;2.33;;;6.30;99.90;;;;;;5051197;28;20437;-70
2021/11/30 07:44:18;;;;;;;4.70;2.40;;;6.40;99.90;;;;;;5051732;28;20025;-70
2021/11/30 07:46:44;;;;;;;2.85;2.58;;;6.40;99.90;;;;;;5051638;28;20048;-69
2021/11/30 07:49:12;;;;;;;11.55;7.05;;;6.40;99.90;;;;;;5051599;28;20043;-70
2021/11/30 07:51:37;;;;;;;4.35;2.13;;;6.50;99.90;;;;;;5051408;28;20517;-72
2021/11/30 07:54:03;;;;;;;4.40;2.40;;;6.50;99.90;;;;;;5051233;28;20036;-73
2021/11/30 07:56:29;;;;;;;1.95;1.85;;;6.50;99.90;;;;;;5051602;28;20347;-71
2021/11/30 07:58:55;;;;;;;2.45;2.25;;;6.60;99.90;;;;;;5050963;28;20044;-70
2021/11/30 08:01:20;;;;;;;7.93;4.20;;;6.70;99.90;;;;;;5050305;28;20051;-71
2021/11/30 08:03:46;;;;;;;3.20;2.58;;;6.70;99.90;;;;;;5051174;28;20495;-71
2021/11/30 08:06:12;;;;;;;7.35;5.72;;;6.70;99.90;;;;;;5051166;28;20384;-72
2021/11/30 08:08:38;;;;;;;3.80;2.53;;;6.70;99.90;;;;;;5051754;28;20060;-71
2021/11/30 08:11:05;;;;;;;3.03;2.22;;;6.70;99.90;;;;;;5050098;28;20433;-72
2021/11/30 08:13:31;;;;;;;7.30;3.10;;;6.80;99.90;;;;;;5051067;28;20111;-71
2021/11/30 08:15:56;;;;;;;4.80;3.10;;;6.90;99.90;;;;;;5050885;28;20366;-73
2021/11/30 08:18:22;;;;;;;6.15;4.00;;;6.90;99.90;;;;;;5051005;28;20044;-71
2021/11/30 08:20:48;;;;;;;3.55;2.58;;;7.00;99.90;;;;;;5050716;28;20104;-71
2021/11/30 08:23:14;;;;;;;2.97;2.67;;;7.00;99.90;;;;;;5050848;28;20045;-71
2021/11/30 08:25:41;;;;;;;5.95;3.22;;;7.10;99.90;;;;;;5050959;28;20047;-70
2021/11/30 08:28:08;;;;;;;5.25;3.13;;;7.10;99.90;;;;;;5049762;28;20405;-72
2021/11/30 08:30:33;;;;;;;4.60;3.72;;;7.20;99.90;;;;;;5050662;28;20047;-70
2021/11/30 08:32:59;;;;;;;6.72;4.45;;;7.20;99.90;;;;;;5050491;28;20475;-71
2021/11/30 08:35:25;;;;;;;4.28;3.88;;;7.20;99.90;;;;;;5050932;28;20067;-71
2021/11/30 08:37:51;;;;;;;6.68;4.05;;;7.30;99.90;;;;;;5049936;28;20040;-71
2021/11/30 08:40:17;;;;;;;5.25;4.10;;;7.30;99.90;;;;;;5050756;28;20026;-71
2021/11/30 08:42:43;;;;;;;4.95;3.63;;;7.40;99.90;;;;;;5049747;28;20082;-70
2021/11/30 08:45:10;;;;;;;7.38;4.20;;;7.40;99.90;;;;;;5050507;28;20107;-72
2021/11/30 08:47:38;;;;;;;6.50;3.90;;;7.50;99.90;;;;;;5050933;28;20125;-71
2021/11/30 08:50:07;;;;;;;5.13;3.95;;;7.50;99.90;;;;;;5050542;28;20258;-71
2021/11/30 08:52:33;;;;;;;5.60;4.10;;;7.50;99.90;;;;;;5050426;28;20029;-72
2021/11/30 08:54:59;;;;;;;7.57;4.10;;;7.60;99.90;;;;;;5050340;28;20063;-72
2021/11/30 08:57:26;;;;;;;7.10;4.30;;;7.60;99.90;;;;;;5048944;28;20397;-70
2021/11/30 08:59:53;;;;;;;5.88;4.50;;;7.60;99.90;;;;;;5050657;28;20441;-69
2021/11/30 09:02:20;;;;;;;6.13;3.83;;;7.60;99.90;;;;;;5050304;28;20426;-68
2021/11/30 09:04:46;;;;;;;6.22;4.15;;;7.70;99.90;;;;;;5050518;28;20112;-69
2021/11/30 09:07:15;;;;;;;5.40;4.30;;;7.80;99.90;;;;;;5050287;28;20140;-68
2021/11/30 09:09:42;;;;;;;7.00;4.50;;;7.80;99.90;;;;;;5050315;28;20451;-70
2021/11/30 09:12:09;;;;;;;4.90;3.97;;;7.90;99.90;;;;;;5049234;28;20538;-68
2021/11/30 09:14:34;;;;;;;5.70;4.30;;;7.90;99.90;;;;;;5051038;28;20048;-68
2021/11/30 09:17:01;;;;;;;9.07;4.68;;;7.90;99.90;;;;;;5050335;28;20479;-69
2021/11/30 09:19:26;;;;;;;5.82;4.07;;;7.90;99.90;;;;;;5050301;28;20124;-70
2021/11/30 09:21:53;;;;;;;8.73;4.38;;;7.80;99.90;;;;;;5050122;28;20452;-72
2021/11/30 09:24:20;;;;;;;10.32;5.28;;;7.90;99.90;;;;;;5050378;28;20037;-71
2021/11/30 09:26:46;;;;;;;5.70;4.07;;;7.80;99.90;;;;;;5050487;28;20021;-69
2021/11/30 09:29:12;;;;;;;5.78;3.92;;;7.80;99.90;;;;;;5050258;28;20090;-71
2021/11/30 09:31:39;;;;;;;6.53;4.35;;;7.90;99.90;;;;;;5050077;28;20049;-71
2021/11/30 09:34:06;;;;;;;6.15;4.30;;;7.80;99.90;;;;;;5048862;28;20052;-71
2021/11/30 09:36:32;;;;;;;9.32;4.38;;;7.90;99.90;;;;;;5049933;28;20537;-70
2021/11/30 09:39:00;;;;;;;5.70;4.32;;;7.90;99.90;;;;;;5049922;28;20017;-71
2021/11/30 09:41:27;;;;;;;8.43;4.95;;;7.90;99.90;;;;;;5050151;28;20025;-70
2021/11/30 09:43:55;;;;;;;8.43;3.72;;;7.90;99.90;;;;;;5050287;28;20029;-69
2021/11/30 09:46:21;;;;;;;7.05;4.13;;;7.90;99.90;;;;;;5049055;28;20133;-69
2021/11/30 09:48:47;;;;;;;8.63;4.00;;;8.00;99.90;;;;;;5049661;28;20045;-71
2021/11/30 09:51:12;;;;;;;5.25;3.50;;;8.00;99.90;;;;;;5049694;28;20075;-70
2021/11/30 09:53:38;;;;;;;5.88;3.65;;;8.20;99.90;;;;;;5050788;28;20025;-70
2021/11/30 09:56:05;;;;;;;13.80;5.18;;;8.20;99.90;;;;;;5052401;28;20029;-69
2021/11/30 09:58:31;;;;;;;5.97;2.97;;;8.30;99.90;;;;;;5053219;28;20475;-71
2021/11/30 10:00:59;;;;;;;7.57;2.30;;;8.20;99.90;;;;;;5053075;28;20072;-72
2021/11/30 10:03:25;;;;;;;6.05;2.42;;;8.30;99.90;;;;;;5053142;28;20072;-71
2021/11/30 10:05:54;;;;;;;4.05;2.00;;;8.30;99.90;;;;;;5053460;28;20087;-70
2021/11/30 10:08:41;;;;;;;7.10;2.00;;;8.40;99.90;;;;;;5053837;28;20037;-70
2021/11/30 10:11:10;;;;;;;5.40;2.28;;;8.50;99.90;;;;;;5053306;28;20130;-71
2021/11/30 10:13:36;;;;;;;6.93;1.80;;;8.50;99.90;;;;;;5052101;28;20036;-73
2021/11/30 10:16:06;;;;;;;6.18;1.60;;;8.50;99.90;;;;;;5053112;28;20340;-71
2021/11/30 10:18:34;;;;;;;9.35;2.05;;;8.60;99.90;;;;;;5052734;28;20056;-71
2021/11/30 10:21:03;;;;;;;9.73;2.13;;;8.60;99.90;;;;;;5052296;28;20021;-72
2021/11/30 10:23:31;;;;;;;7.18;2.33;;;8.60;99.90;;;;;;5053674;28;20098;-72
2021/11/30 10:26:03;;;;;;;3.42;1.52;;;8.70;99.90;;;;;;5052718;28;20047;-74
2021/11/30 10:28:31;;;;;;;8.45;2.30;;;8.70;99.90;;;;;;5052631;28;20105;-76
2021/11/30 10:30:57;;;;;;;6.32;1.52;;;8.80;99.90;;;;;;5052434;28;20041;-77
2021/11/30 10:33:25;;;;;;;8.65;1.58;;;8.80;99.90;;;;;;5052545;28;20037;-71
2021/11/30 10:35:53;;;;;;;;;;;8.90;99.90;;;;;;5053552;28;20036;-71
2021/11/30 10:38:19;;;;;;;4.85;1.83;;;8.90;99.90;;;;;;5052758;28;19939;-72
2021/11/30 10:40:45;;;;;;;16.38;2.25;;;9.00;99.90;;;;;;5052724;28;20459;-72
2021/11/30 10:43:11;;;;;;;10.27;1.77;;;9.00;99.90;;;;;;5052617;28;20032;-72
2021/11/30 10:45:49;;;;;;;10.95;1.58;;;9.00;99.90;;;;;;5052398;28;20021;-71
2021/11/30 10:48:20;;;;;;;8.75;2.42;;;9.20;99.90;;;;;;5052341;28;20343;-72
2021/11/30 10:50:50;;;;;;;7.05;1.65;;;9.20;99.90;;;;;;5051790;28;20021;-72
2021/11/30 10:53:31;;;;;;;8.60;1.67;;;9.20;99.90;;;;;;5052752;28;20025;-72
2021/11/30 10:56:00;;;;;;;11.23;1.80;;;9.20;99.90;;;;;;5052128;28;20029;-70
2021/11/30 10:58:28;;;;;;;17.85;1.58;;;9.20;99.90;;;;;;5052003;28;20490;-71
2021/11/30 11:00:54;;;;;;;;;;;9.30;99.90;;;;;;5052684;28;20112;-71
2021/11/30 11:03:21;;;;;;;6.65;1.35;;;9.40;99.90;;;;;;5051982;28;19939;-71
2021/11/30 11:08:51;;;;;;;13.10;2.08;;;9.40;99.90;;;;;;5052099;28;20040;-72
2021/11/30 11:11:18;;;;;;;;;;;9.50;99.90;;;;;;5051465;28;20029;-71
2021/11/30 11:13:45;;;;;;;17.08;2.22;;;9.50;99.90;;;;;;5051952;28;19944;-70
2021/11/30 11:16:28;;;;;;;21.90;2.75;;;9.60;99.90;;;;;;5051900;28;20463;-71
2021/11/30 11:18:57;;;;;;;19.13;2.50;;;9.60;99.90;;;;;;5051514;28;20059;-71
2021/11/30 11:21:22;;;;;;;18.38;3.10;;;9.70;99.90;;;;;;5051892;28;20044;-72
2021/11/30 11:24:04;;;;;;;17.55;2.83;;;9.80;99.70;;;;;;5052096;28;20033;-71
2021/11/30 11:26:39;;;;;;;18.58;2.22;;;9.90;99.70;;;;;;5050637;28;20048;-72
2021/11/30 11:29:10;;;;;;;23.00;2.00;;;9.90;98.90;;;;;;5051866;28;20123;-72
2021/11/30 11:31:42;;;;;;;20.05;2.80;;;9.90;98.90;;;;;;5051513;28;20091;-72
2021/11/30 11:34:09;;;;;;;18.52;1.95;;;9.90;98.80;;;;;;5051422;28;20622;-72
2021/11/30 11:36:36;;;;;;;15.60;2.60;;;9.80;98.50;;;;;;5051729;28;20124;-73
2021/11/30 11:39:04;;;;;;;14.25;2.15;;;9.80;98.40;;;;;;5050157;28;20035;-71
2021/11/30 11:41:30;;;;;;;19.08;2.80;;;9.70;98.30;;;;;;5051698;28;20021;-70
2021/11/30 11:43:58;;;;;;;11.90;2.05;;;9.70;98.10;;;;;;5051086;28;20039;-71
2021/11/30 11:46:25;;;;;;;;;;;9.70;98.30;;;;;;5050369;28;20048;-71
2021/11/30 11:48:58;;;;;;;21.98;2.60;;;9.70;98.00;;;;;;5049787;28;19951;-71
2021/11/30 11:51:58;;;;;;;16.52;2.85;;;9.80;98.30;;;;;;5051241;28;20037;-71
2021/11/30 11:54:35;;;;;;;13.80;2.45;;;9.80;98.30;;;;;;5048693;28;20044;-70
2021/11/30 11:57:05;;;;;;;19.05;2.42;;;9.80;98.00;;;;;;5050539;28;20043;-71
2021/11/30 11:59:35;;;;;;;18.05;2.22;;;9.80;98.00;;;;;;5051283;28;20423;-71
2021/11/30 12:02:19;;;;;;;14.80;1.90;;;10.00;97.60;;;;;;5050821;28;20482;-71
2021/11/30 12:04:47;;;;;;;18.80;2.63;;;9.70;97.40;;;;;;5049886;28;20089;-71
2021/11/30 12:07:13;;;;;;;17.45;2.88;;;9.80;97.70;;;;;;5049865;28;20033;-71
2021/11/30 12:09:38;;;;;;;27.10;4.18;;;9.80;97.70;;;;;;5050880;28;20276;-71
2021/11/30 12:12:10;;;;;;;14.32;2.80;;;9.80;97.50;;;;;;5050918;28;20481;-72
2021/11/30 12:14:45;;;;;;;12.60;2.08;;;9.70;97.40;;;;;;5051191;28;20024;-71
2021/11/30 12:17:17;;;;;;;15.35;1.70;;;9.80;97.50;;;;;;5050787;28;20047;-71
2021/11/30 12:19:56;;;;;;;12.75;2.53;;;9.80;97.70;;;;;;5050795;28;20036;-71
2021/11/30 12:22:56;;;;;;;11.20;2.08;;;9.70;97.80;;;;;;5049439;28;20029;-73
2021/11/30 12:25:40;;;;;;;23.23;3.00;;;9.60;98.30;;;;;;5049664;28;20030;-72
2021/11/30 12:28:09;;;;;;;15.60;2.33;;;9.60;98.70;;;;;;5050394;28;20374;-73
2021/11/30 12:30:49;;;;;;;12.93;2.42;;;9.60;98.60;;;;;;5050482;28;20116;-73
2021/11/30 12:33:19;;;;;;;18.08;2.50;;;9.70;98.40;;;;;;5050546;28;20069;-72
2021/11/30 12:36:12;;;;;;;15.75;2.80;;;9.60;97.90;;;;;;5050748;28;20028;-72
2021/11/30 12:38:56;;;;;;;17.63;2.40;;;9.60;98.00;;;;;;5048359;28;20029;-72
2021/11/30 12:41:40;;;;;;;18.15;2.30;;;9.60;97.30;;;;;;5050223;28;20116;-70
2021/11/30 12:44:17;;;;;;;10.98;2.17;;;9.50;96.80;;;;;;5050220;28;20025;-69
2021/11/30 12:46:44;;;;;;;10.60;2.35;;;9.50;96.80;;;;;;5050080;28;20073;-69
2021/11/30 12:49:27;;;;;;;15.60;2.67;;;9.50;96.80;;;;;;5050194;28;20474;-69
2021/11/30 12:52:19;;;;;;;16.30;1.77;;;9.50;95.90;;;;;;5048917;28;20078;-70
2021/11/30 12:55:00;;;;;;;19.08;3.38;;;9.50;95.70;;;;;;5050062;28;20506;-70
2021/11/30 12:57:28;;;;;;;11.90;2.25;;;9.30;95.60;;;;;;5049901;28;20029;-71
2021/11/30 13:00:21;;;;;;;12.70;1.92;;;9.40;95.60;;;;;;5049794;28;20108;-73
2021/11/30 13:02:49;;;;;;;20.85;2.45;;;9.40;95.60;;;;;;5044384;28;20102;-71
2021/11/30 13:05:17;;;;;;;10.68;2.20;;;9.40;95.40;;;;;;5049905;28;20103;-71
2021/11/30 13:07:49;;;;;;;16.67;2.90;;;9.30;95.60;;;;;;5050022;28;20037;-70
2021/11/30 13:10:35;;;;;;;15.52;2.20;;;9.20;95.90;;;;;;5049987;28;20348;-70
2021/11/30 13:13:05;;;;;;;11.10;2.25;;;9.20;96.40;;;;;;5050349;28;20037;-71
2021/11/30 13:15:31;;;;;;;8.82;1.60;;;9.30;96.20;;;;;;5049890;28;20025;-70